sensor_id;sensor_type;location;lat;lon;timestamp;temperature;humidity
24260;DHT22;12384;48.112;18.418;2022-11-11T00:02:46;6.00;99.90
24260;DHT22;12384;48.112;18.418;2022-11-11T00:05:34;5.90;99.90
24260;DHT22;12384;48.112;18.418;2022-11-11T00:08:20;5.90;99.90
24260;DHT22;12384;48.112;18.418;2022-11-11T00:11:09;5.80;99.90
24260;DHT22;12384;48.112;18.418;2022-11-11T00:13:56;5.80;99.90
24260;DHT22;12384;48.112;18.418;2022-11-11T00:16:44;5.80;99.90
24260;DHT22;12384;48.112;18.418;2022-11-11T00:19:48;5.70;99.90
24260;DHT22;12384;48.112;18.418;2022-11-11T00:22:52;5.70;99.90
24260;DHT22;12384;48.112;18.418;2022-11-11T00:25:57;5.60;99.90
24260;DHT22;12384;48.112;18.418;2022-11-11T00:29:05;5.60;99.90
24260;DHT22;12384;48.112;18.418;2022-11-11T00:31:53;5.60;99.90
24260;DHT22;12384;48.112;18.418;2022-11-11T00:34:58;5.60;99.90
24260;DHT22;12384;48.112;18.418;2022-11-11T00:38:06;5.60;99.90
24260;DHT22;12384;48.112;18.418;2022-11-11T00:40:53;5.60;99.90
24260;DHT22;12384;48.112;18.418;2022-11-11T00:43:40;5.60;99.90
24260;DHT22;12384;48.112;18.418;2022-11-11T00:46:27;5.60;99.90
24260;DHT22;12384;48.112;18.418;2022-11-11T00:49:33;5.60;99.90
24260;DHT22;12384;48.112;18.418;2022-11-11T00:52:37;5.70;99.90
24260;DHT22;12384;48.112;18.418;2022-11-11T00:55:24;5.70;99.90
24260;DHT22;12384;48.112;18.418;2022-11-11T00:58:11;5.70;99.90
24260;DHT22;12384;48.112;18.418;2022-11-11T01:01:02;5.70;99.90
24260;DHT22;12384;48.112;18.418;2022-11-11T01:03:48;5.60;99.90
24260;DHT22;12384;48.112;18.418;2022-11-11T01:06:37;5.60;99.90
24260;DHT22;12384;48.112;18.418;2022-11-11T01:09:23;5.60;99.90
24260;DHT22;12384;48.112;18.418;2022-11-11T01:12:10;5.60;99.90
24260;DHT22;12384;48.112;18.418;2022-11-11T01:14:57;5.60;99.90
24260;DHT22;12384;48.112;18.418;2022-11-11T01:17:44;5.50;99.90
24260;DHT22;12384;48.112;18.418;2022-11-11T01:20:31;5.50;99.90
24260;DHT22;12384;48.112;18.418;2022-11-11T01:23:19;5.60;99.90
24260;DHT22;12384;48.112;18.418;2022-11-11T01:26:09;5.60;99.90
24260;DHT22;12384;48.112;18.418;2022-11-11T01:28:57;5.60;99.90
24260;DHT22;12384;48.112;18.418;2022-11-11T01:31:44;5.60;99.90
24260;DHT22;12384;48.112;18.418;2022-11-11T01:34:31;5.60;99.90
24260;DHT22;12384;48.112;18.418;2022-11-11T01:37:18;5.60;99.90
24260;DHT22;12384;48.112;18.418;2022-11-11T01:40:08;5.70;99.90
24260;DHT22;12384;48.112;18.418;2022-11-11T01:43:17;5.70;99.90
24260;DHT22;12384;48.112;18.418;2022-11-11T01:46:04;5.70;99.90
24260;DHT22;12384;48.112;18.418;2022-11-11T01:48:54;5.70;99.90
24260;DHT22;12384;48.112;18.418;2022-11-11T01:52:02;5.70;99.90
24260;DHT22;12384;48.112;18.418;2022-11-11T01:54:52;5.80;99.90
24260;DHT22;12384;48.112;18.418;2022-11-11T01:57:45;5.80;99.90
24260;DHT22;12384;48.112;18.418;2022-11-11T02:00:34;5.80;99.90
24260;DHT22;12384;48.112;18.418;2022-11-11T02:03:23;5.80;99.90
24260;DHT22;12384;48.112;18.418;2022-11-11T02:06:11;5.80;99.90
24260;DHT22;12384;48.112;18.418;2022-11-11T02:08:58;5.90;99.90
24260;DHT22;12384;48.112;18.418;2022-11-11T02:11:47;5.90;99.90
24260;DHT22;12384;48.112;18.418;2022-11-11T02:14:55;5.90;99.90
24260;DHT22;12384;48.112;18.418;2022-11-11T02:17:42;5.90;99.90
24260;DHT22;12384;48.112;18.418;2022-11-11T02:20:36;5.90;99.90
24260;DHT22;12384;48.112;18.418;2022-11-11T02:23:29;5.80;99.90
24260;DHT22;12384;48.112;18.418;2022-11-11T02:26:21;5.80;99.90
24260;DHT22;12384;48.112;18.418;2022-11-11T02:29:11;5.80;99.90
24260;DHT22;12384;48.112;18.418;2022-11-11T02:31:59;5.80;99.90
24260;DHT22;12384;48.112;18.418;2022-11-11T02:34:46;5.80;99.90
24260;DHT22;12384;48.112;18.418;2022-11-11T02:37:33;5.80;99.90
24260;DHT22;12384;48.112;18.418;2022-11-11T02:40:24;5.80;99.90
24260;DHT22;12384;48.112;18.418;2022-11-11T02:43:12;5.80;99.90
24260;DHT22;12384;48.112;18.418;2022-11-11T02:46:01;5.80;99.90
24260;DHT22;12384;48.112;18.418;2022-11-11T02:48:48;5.70;99.90
24260;DHT22;12384;48.112;18.418;2022-11-11T02:51:35;5.70;99.90
24260;DHT22;12384;48.112;18.418;2022-11-11T02:54:21;5.70;99.90
24260;DHT22;12384;48.112;18.418;2022-11-11T02:57:08;5.70;99.90
24260;DHT22;12384;48.112;18.418;2022-11-11T02:59:58;5.60;99.90
24260;DHT22;12384;48.112;18.418;2022-11-11T03:02:46;5.60;99.90
24260;DHT22;12384;48.112;18.418;2022-11-11T03:05:33;5.60;99.90
24260;DHT22;12384;48.112;18.418;2022-11-11T03:08:20;5.50;99.90
24260;DHT22;12384;48.112;18.418;2022-11-11T03:11:07;5.50;99.90
24260;DHT22;12384;48.112;18.418;2022-11-11T03:13:55;5.50;99.90
24260;DHT22;12384;48.112;18.418;2022-11-11T03:16:43;5.50;99.90
24260;DHT22;12384;48.112;18.418;2022-11-11T03:19:48;5.50;99.90
24260;DHT22;12384;48.112;18.418;2022-11-11T03:22:35;5.50;99.90
24260;DHT22;12384;48.112;18.418;2022-11-11T03:25:40;5.60;99.90
24260;DHT22;12384;48.112;18.418;2022-11-11T03:28:28;5.60;99.90
24260;DHT22;12384;48.112;18.418;2022-11-11T03:31:15;5.60;99.90
24260;DHT22;12384;48.112;18.418;2022-11-11T03:34:03;5.60;99.90
24260;DHT22;12384;48.112;18.418;2022-11-11T03:37:04;5.60;99.90
24260;DHT22;12384;48.112;18.418;2022-11-11T03:40:10;5.60;99.90
24260;DHT22;12384;48.112;18.418;2022-11-11T03:42:57;5.60;99.90
24260;DHT22;12384;48.112;18.418;2022-11-11T03:45:50;5.60;99.90
24260;DHT22;12384;48.112;18.418;2022-11-11T03:48:37;5.60;99.90
24260;DHT22;12384;48.112;18.418;2022-11-11T03:51:25;5.50;99.90
24260;DHT22;12384;48.112;18.418;2022-11-11T03:54:12;5.50;99.90
24260;DHT22;12384;48.112;18.418;2022-11-11T03:56:59;5.50;99.90
24260;DHT22;12384;48.112;18.418;2022-11-11T04:00:04;5.50;99.90
24260;DHT22;12384;48.112;18.418;2022-11-11T04:03:03;5.40;99.90
24260;DHT22;12384;48.112;18.418;2022-11-11T04:06:09;5.40;99.90
24260;DHT22;12384;48.112;18.418;2022-11-11T04:09:14;5.30;99.90
24260;DHT22;12384;48.112;18.418;2022-11-11T04:12:18;5.30;99.90
24260;DHT22;12384;48.112;18.418;2022-11-11T04:15:06;5.30;99.90
24260;DHT22;12384;48.112;18.418;2022-11-11T04:18:10;5.20;99.90
24260;DHT22;12384;48.112;18.418;2022-11-11T04:20:57;5.20;99.90
24260;DHT22;12384;48.112;18.418;2022-11-11T04:24:02;5.20;99.90
24260;DHT22;12384;48.112;18.418;2022-11-11T04:27:12;5.10;99.90
24260;DHT22;12384;48.112;18.418;2022-11-11T04:29:59;5.10;99.90
24260;DHT22;12384;48.112;18.418;2022-11-11T04:32:44;5.00;99.90
24260;DHT22;12384;48.112;18.418;2022-11-11T04:35:32;5.00;99.90
24260;DHT22;12384;48.112;18.418;2022-11-11T04:38:19;5.00;99.90
24260;DHT22;12384;48.112;18.418;2022-11-11T04:41:23;5.00;99.90
24260;DHT22;12384;48.112;18.418;2022-11-11T04:44:31;4.90;99.90
24260;DHT22;12384;48.112;18.418;2022-11-11T04:47:35;4.90;99.90
24260;DHT22;12384;48.112;18.418;2022-11-11T04:50:23;4.90;99.90
24260;DHT22;12384;48.112;18.418;2022-11-11T04:53:11;4.80;99.90
24260;DHT22;12384;48.112;18.418;2022-11-11T04:55:58;4.80;99.90
24260;DHT22;12384;48.112;18.418;2022-11-11T04:59:01;4.80;99.90
24260;DHT22;12384;48.112;18.418;2022-11-11T05:02:06;4.80;99.90
24260;DHT22;12384;48.112;18.418;2022-11-11T05:05:11;4.80;99.90
24260;DHT22;12384;48.112;18.418;2022-11-11T05:07:57;4.70;99.90
24260;DHT22;12384;48.112;18.418;2022-11-11T05:11:01;4.60;99.90
24260;DHT22;12384;48.112;18.418;2022-11-11T05:13:49;4.60;99.90
24260;DHT22;12384;48.112;18.418;2022-11-11T05:16:55;4.50;99.90
24260;DHT22;12384;48.112;18.418;2022-11-11T05:20:01;4.40;99.90
24260;DHT22;12384;48.112;18.418;2022-11-11T05:23:05;4.40;99.90
24260;DHT22;12384;48.112;18.418;2022-11-11T05:25:51;4.30;99.90
24260;DHT22;12384;48.112;18.418;2022-11-11T05:28:37;4.30;99.90
24260;DHT22;12384;48.112;18.418;2022-11-11T05:31:25;4.20;99.90
24260;DHT22;12384;48.112;18.418;2022-11-11T05:34:12;4.20;99.90
24260;DHT22;12384;48.112;18.418;2022-11-11T05:37:00;4.20;99.90
24260;DHT22;12384;48.112;18.418;2022-11-11T05:39:47;4.20;99.90
24260;DHT22;12384;48.112;18.418;2022-11-11T05:42:33;4.10;99.90
24260;DHT22;12384;48.112;18.418;2022-11-11T05:45:27;4.20;99.90
24260;DHT22;12384;48.112;18.418;2022-11-11T05:48:14;4.20;99.90
24260;DHT22;12384;48.112;18.418;2022-11-11T05:51:00;4.20;99.90
24260;DHT22;12384;48.112;18.418;2022-11-11T05:53:48;4.20;99.90
24260;DHT22;12384;48.112;18.418;2022-11-11T05:56:35;4.20;99.90
24260;DHT22;12384;48.112;18.418;2022-11-11T05:59:22;4.20;99.90
24260;DHT22;12384;48.112;18.418;2022-11-11T06:02:09;4.30;99.90
24260;DHT22;12384;48.112;18.418;2022-11-11T06:04:56;4.30;99.90
24260;DHT22;12384;48.112;18.418;2022-11-11T06:07:42;4.40;99.90
24260;DHT22;12384;48.112;18.418;2022-11-11T06:10:30;4.40;99.90
24260;DHT22;12384;48.112;18.418;2022-11-11T06:13:17;4.50;99.90
24260;DHT22;12384;48.112;18.418;2022-11-11T06:16:04;4.50;99.90
24260;DHT22;12384;48.112;18.418;2022-11-11T06:18:51;4.60;99.90
24260;DHT22;12384;48.112;18.418;2022-11-11T06:21:38;4.60;99.90
24260;DHT22;12384;48.112;18.418;2022-11-11T06:24:43;4.80;99.90
24260;DHT22;12384;48.112;18.418;2022-11-11T06:27:51;5.00;99.90
24260;DHT22;12384;48.112;18.418;2022-11-11T06:30:38;5.10;99.90
24260;DHT22;12384;48.112;18.418;2022-11-11T06:33:35;5.30;99.90
24260;DHT22;12384;48.112;18.418;2022-11-11T06:36:22;5.40;99.90
24260;DHT22;12384;48.112;18.418;2022-11-11T06:39:09;5.70;99.90
24260;DHT22;12384;48.112;18.418;2022-11-11T06:41:56;5.90;99.90
24260;DHT22;12384;48.112;18.418;2022-11-11T06:44:45;6.10;99.90
24260;DHT22;12384;48.112;18.418;2022-11-11T06:47:31;6.30;99.90
24260;DHT22;12384;48.112;18.418;2022-11-11T06:50:18;6.50;99.90
24260;DHT22;12384;48.112;18.418;2022-11-11T06:53:06;6.60;99.90
24260;DHT22;12384;48.112;18.418;2022-11-11T06:55:53;6.70;99.90
24260;DHT22;12384;48.112;18.418;2022-11-11T06:58:40;6.80;99.90
24260;DHT22;12384;48.112;18.418;2022-11-11T07:01:28;6.80;99.90
24260;DHT22;12384;48.112;18.418;2022-11-11T07:04:15;6.90;99.90
24260;DHT22;12384;48.112;18.418;2022-11-11T07:07:01;7.00;99.90
24260;DHT22;12384;48.112;18.418;2022-11-11T07:09:48;7.20;99.90
24260;DHT22;12384;48.112;18.418;2022-11-11T07:12:35;7.50;99.90
24260;DHT22;12384;48.112;18.418;2022-11-11T07:15:22;7.80;99.90
24260;DHT22;12384;48.112;18.418;2022-11-11T07:18:11;8.10;99.90
24260;DHT22;12384;48.112;18.418;2022-11-11T07:20:57;8.30;99.90
24260;DHT22;12384;48.112;18.418;2022-11-11T07:23:44;8.60;99.90
24260;DHT22;12384;48.112;18.418;2022-11-11T07:26:31;8.90;99.90
24260;DHT22;12384;48.112;18.418;2022-11-11T07:29:18;9.10;99.90
24260;DHT22;12384;48.112;18.418;2022-11-11T07:32:05;9.30;99.90
24260;DHT22;12384;48.112;18.418;2022-11-11T07:34:53;9.40;99.90
24260;DHT22;12384;48.112;18.418;2022-11-11T07:37:40;9.70;99.90
24260;DHT22;12384;48.112;18.418;2022-11-11T07:40:27;10.00;99.90
24260;DHT22;12384;48.112;18.418;2022-11-11T07:43:14;10.30;99.90
24260;DHT22;12384;48.112;18.418;2022-11-11T07:46:01;10.70;99.90
24260;DHT22;12384;48.112;18.418;2022-11-11T07:48:48;11.10;99.90
24260;DHT22;12384;48.112;18.418;2022-11-11T07:51:35;11.50;99.90
24260;DHT22;12384;48.112;18.418;2022-11-11T07:54:23;12.00;99.90
24260;DHT22;12384;48.112;18.418;2022-11-11T07:57:09;12.40;99.90
24260;DHT22;12384;48.112;18.418;2022-11-11T07:59:56;12.80;99.90
24260;DHT22;12384;48.112;18.418;2022-11-11T08:02:46;13.20;99.90
24260;DHT22;12384;48.112;18.418;2022-11-11T08:05:33;13.60;99.90
24260;DHT22;12384;48.112;18.418;2022-11-11T08:08:21;14.20;99.90
24260;DHT22;12384;48.112;18.418;2022-11-11T08:11:14;14.70;99.90
24260;DHT22;12384;48.112;18.418;2022-11-11T08:14:01;15.30;99.90
24260;DHT22;12384;48.112;18.418;2022-11-11T08:16:47;15.90;99.90
24260;DHT22;12384;48.112;18.418;2022-11-11T08:19:33;16.60;99.90
24260;DHT22;12384;48.112;18.418;2022-11-11T08:22:20;17.10;99.90
24260;DHT22;12384;48.112;18.418;2022-11-11T08:25:10;17.40;99.90
24260;DHT22;12384;48.112;18.418;2022-11-11T08:28:00;17.70;99.90
24260;DHT22;12384;48.112;18.418;2022-11-11T08:30:47;17.90;99.90
24260;DHT22;12384;48.112;18.418;2022-11-11T08:33:34;18.00;99.90
24260;DHT22;12384;48.112;18.418;2022-11-11T08:36:22;17.90;95.20
24260;DHT22;12384;48.112;18.418;2022-11-11T08:39:10;17.50;89.60
24260;DHT22;12384;48.112;18.418;2022-11-11T08:41:58;17.20;81.60
24260;DHT22;12384;48.112;18.418;2022-11-11T08:44:45;16.60;76.20
24260;DHT22;12384;48.112;18.418;2022-11-11T08:47:32;16.20;73.50
24260;DHT22;12384;48.112;18.418;2022-11-11T08:50:19;15.70;72.40
24260;DHT22;12384;48.112;18.418;2022-11-11T08:53:07;15.30;72.60
24260;DHT22;12384;48.112;18.418;2022-11-11T08:55:54;14.90;73.10
24260;DHT22;12384;48.112;18.418;2022-11-11T08:58:42;14.70;73.80
24260;DHT22;12384;48.112;18.418;2022-11-11T09:01:28;14.50;75.10
24260;DHT22;12384;48.112;18.418;2022-11-11T09:04:16;14.30;75.40
24260;DHT22;12384;48.112;18.418;2022-11-11T09:07:23;14.20;76.70
24260;DHT22;12384;48.112;18.418;2022-11-11T09:10:10;14.10;76.10
24260;DHT22;12384;48.112;18.418;2022-11-11T09:12:57;14.00;75.80
24260;DHT22;12384;48.112;18.418;2022-11-11T09:15:45;14.00;75.10
24260;DHT22;12384;48.112;18.418;2022-11-11T09:18:32;13.90;74.40
24260;DHT22;12384;48.112;18.418;2022-11-11T09:21:19;13.90;75.70
24260;DHT22;12384;48.112;18.418;2022-11-11T09:24:06;14.00;77.90
24260;DHT22;12384;48.112;18.418;2022-11-11T09:26:52;14.10;80.00
24260;DHT22;12384;48.112;18.418;2022-11-11T09:29:40;14.30;80.50
24260;DHT22;12384;48.112;18.418;2022-11-11T09:32:28;14.40;79.20
24260;DHT22;12384;48.112;18.418;2022-11-11T09:35:14;14.40;77.60
24260;DHT22;12384;48.112;18.418;2022-11-11T09:38:01;14.50;76.90
24260;DHT22;12384;48.112;18.418;2022-11-11T09:41:06;14.40;75.10
24260;DHT22;12384;48.112;18.418;2022-11-11T09:43:56;14.30;73.40
24260;DHT22;12384;48.112;18.418;2022-11-11T09:46:50;14.20;73.50
24260;DHT22;12384;48.112;18.418;2022-11-11T09:49:51;14.20;75.00
24260;DHT22;12384;48.112;18.418;2022-11-11T09:52:42;14.60;79.20
24260;DHT22;12384;48.112;18.418;2022-11-11T09:55:35;15.10;82.10
24260;DHT22;12384;48.112;18.418;2022-11-11T09:58:27;15.70;82.50
24260;DHT22;12384;48.112;18.418;2022-11-11T10:01:17;16.30;81.00
24260;DHT22;12384;48.112;18.418;2022-11-11T10:04:16;16.70;76.70
24260;DHT22;12384;48.112;18.418;2022-11-11T10:07:12;16.90;71.90
24260;DHT22;12384;48.112;18.418;2022-11-11T10:10:05;17.00;68.50
24260;DHT22;12384;48.112;18.418;2022-11-11T10:12:55;17.00;67.00
24260;DHT22;12384;48.112;18.418;2022-11-11T10:15:51;17.20;67.50
24260;DHT22;12384;48.112;18.418;2022-11-11T10:18:51;17.40;67.30
24260;DHT22;12384;48.112;18.418;2022-11-11T10:21:44;17.60;65.40
24260;DHT22;12384;48.112;18.418;2022-11-11T10:25:06;17.70;64.20
24260;DHT22;12384;48.112;18.418;2022-11-11T10:27:56;17.80;63.30
24260;DHT22;12384;48.112;18.418;2022-11-11T10:30:44;18.10;62.90
24260;DHT22;12384;48.112;18.418;2022-11-11T10:33:37;18.40;62.80
24260;DHT22;12384;48.112;18.418;2022-11-11T10:36:28;18.90;62.00
24260;DHT22;12384;48.112;18.418;2022-11-11T10:39:26;19.50;61.00
24260;DHT22;12384;48.112;18.418;2022-11-11T10:42:19;20.10;59.80
24260;DHT22;12384;48.112;18.418;2022-11-11T10:45:12;20.70;58.70
24260;DHT22;12384;48.112;18.418;2022-11-11T10:48:03;21.20;57.60
24260;DHT22;12384;48.112;18.418;2022-11-11T10:50:53;21.80;56.40
24260;DHT22;12384;48.112;18.418;2022-11-11T10:53:48;22.30;55.50
24260;DHT22;12384;48.112;18.418;2022-11-11T10:56:43;22.80;54.20
24260;DHT22;12384;48.112;18.418;2022-11-11T10:59:38;23.20;53.00
24260;DHT22;12384;48.112;18.418;2022-11-11T11:02:30;23.70;52.30
24260;DHT22;12384;48.112;18.418;2022-11-11T11:05:25;23.90;50.70
24260;DHT22;12384;48.112;18.418;2022-11-11T11:08:16;23.90;49.50
24260;DHT22;12384;48.112;18.418;2022-11-11T11:11:08;23.60;48.70
24260;DHT22;12384;48.112;18.418;2022-11-11T11:13:59;23.10;48.00
24260;DHT22;12384;48.112;18.418;2022-11-11T11:16:50;22.60;47.80
24260;DHT22;12384;48.112;18.418;2022-11-11T11:19:41;22.00;47.60
24260;DHT22;12384;48.112;18.418;2022-11-11T11:22:44;21.30;47.50
24260;DHT22;12384;48.112;18.418;2022-11-11T11:25:32;20.80;47.60
24260;DHT22;12384;48.112;18.418;2022-11-11T11:28:19;20.40;48.20
24260;DHT22;12384;48.112;18.418;2022-11-11T11:31:07;20.20;48.20
24260;DHT22;12384;48.112;18.418;2022-11-11T11:33:56;20.00;48.60
24260;DHT22;12384;48.112;18.418;2022-11-11T11:36:43;20.00;49.40
24260;DHT22;12384;48.112;18.418;2022-11-11T11:39:35;20.20;49.20
24260;DHT22;12384;48.112;18.418;2022-11-11T11:42:30;20.40;48.90
24260;DHT22;12384;48.112;18.418;2022-11-11T11:45:23;20.70;48.90
24260;DHT22;12384;48.112;18.418;2022-11-11T11:48:20;20.90;48.60
24260;DHT22;12384;48.112;18.418;2022-11-11T11:51:29;21.10;48.40
24260;DHT22;12384;48.112;18.418;2022-11-11T11:54:48;21.30;48.10
24260;DHT22;12384;48.112;18.418;2022-11-11T11:57:47;21.50;47.40
24260;DHT22;12384;48.112;18.418;2022-11-11T12:00:40;21.60;47.50
24260;DHT22;12384;48.112;18.418;2022-11-11T12:03:50;21.60;47.40
24260;DHT22;12384;48.112;18.418;2022-11-11T12:06:51;21.70;46.70
24260;DHT22;12384;48.112;18.418;2022-11-11T12:09:51;21.70;46.90
24260;DHT22;12384;48.112;18.418;2022-11-11T12:12:47;21.70;47.30
24260;DHT22;12384;48.112;18.418;2022-11-11T12:15:39;21.80;47.50
24260;DHT22;12384;48.112;18.418;2022-11-11T12:18:50;21.80;46.70
24260;DHT22;12384;48.112;18.418;2022-11-11T12:21:49;21.60;45.60
24260;DHT22;12384;48.112;18.418;2022-11-11T12:24:47;21.20;45.70
24260;DHT22;12384;48.112;18.418;2022-11-11T12:27:41;20.70;45.70
24260;DHT22;12384;48.112;18.418;2022-11-11T12:30:32;20.10;45.80
24260;DHT22;12384;48.112;18.418;2022-11-11T12:33:47;19.60;47.50
24260;DHT22;12384;48.112;18.418;2022-11-11T12:36:41;19.50;48.80
24260;DHT22;12384;48.112;18.418;2022-11-11T12:39:56;19.60;49.30
24260;DHT22;12384;48.112;18.418;2022-11-11T12:42:55;20.00;49.00
24260;DHT22;12384;48.112;18.418;2022-11-11T12:45:47;20.40;49.50
24260;DHT22;12384;48.112;18.418;2022-11-11T12:48:45;20.80;48.70
24260;DHT22;12384;48.112;18.418;2022-11-11T12:51:44;21.40;48.60
24260;DHT22;12384;48.112;18.418;2022-11-11T12:54:45;22.00;47.90
24260;DHT22;12384;48.112;18.418;2022-11-11T12:57:42;22.60;47.10
24260;DHT22;12384;48.112;18.418;2022-11-11T13:00:33;23.10;46.40
24260;DHT22;12384;48.112;18.418;2022-11-11T13:03:42;23.50;45.60
24260;DHT22;12384;48.112;18.418;2022-11-11T13:06:52;23.90;44.10
24260;DHT22;12384;48.112;18.418;2022-11-11T13:09:56;24.10;43.40
24260;DHT22;12384;48.112;18.418;2022-11-11T13:12:52;24.30;43.00
24260;DHT22;12384;48.112;18.418;2022-11-11T13:15:43;24.40;43.10
24260;DHT22;12384;48.112;18.418;2022-11-11T13:18:42;24.40;42.90
24260;DHT22;12384;48.112;18.418;2022-11-11T13:21:35;24.60;42.40
24260;DHT22;12384;48.112;18.418;2022-11-11T13:24:28;24.50;42.10
24260;DHT22;12384;48.112;18.418;2022-11-11T13:27:26;24.10;41.90
24260;DHT22;12384;48.112;18.418;2022-11-11T13:30:35;23.80;42.30
24260;DHT22;12384;48.112;18.418;2022-11-11T13:33:26;23.50;42.60
24260;DHT22;12384;48.112;18.418;2022-11-11T13:36:24;23.50;43.60
24260;DHT22;12384;48.112;18.418;2022-11-11T13:39:24;23.50;43.70
24260;DHT22;12384;48.112;18.418;2022-11-11T13:42:21;23.60;43.40
24260;DHT22;12384;48.112;18.418;2022-11-11T13:45:22;23.60;43.90
24260;DHT22;12384;48.112;18.418;2022-11-11T13:48:22;23.50;43.60
24260;DHT22;12384;48.112;18.418;2022-11-11T13:51:23;23.30;43.40
24260;DHT22;12384;48.112;18.418;2022-11-11T13:54:21;23.00;43.10
24260;DHT22;12384;48.112;18.418;2022-11-11T13:57:17;22.70;43.30
24260;DHT22;12384;48.112;18.418;2022-11-11T14:00:24;22.30;43.30
24260;DHT22;12384;48.112;18.418;2022-11-11T14:03:36;21.80;43.30
24260;DHT22;12384;48.112;18.418;2022-11-11T14:06:51;21.30;43.40
24260;DHT22;12384;48.112;18.418;2022-11-11T14:09:55;20.70;43.90
24260;DHT22;12384;48.112;18.418;2022-11-11T14:12:43;20.10;44.20
24260;DHT22;12384;48.112;18.418;2022-11-11T14:15:41;19.50;44.50
24260;DHT22;12384;48.112;18.418;2022-11-11T14:18:39;19.00;44.80
24260;DHT22;12384;48.112;18.418;2022-11-11T14:21:49;18.50;45.20
24260;DHT22;12384;48.112;18.418;2022-11-11T14:24:44;18.00;45.70
24260;DHT22;12384;48.112;18.418;2022-11-11T14:27:32;17.50;46.10
24260;DHT22;12384;48.112;18.418;2022-11-11T14:30:36;17.00;46.60
24260;DHT22;12384;48.112;18.418;2022-11-11T14:33:37;16.60;47.10
24260;DHT22;12384;48.112;18.418;2022-11-11T14:36:35;16.20;48.00
24260;DHT22;12384;48.112;18.418;2022-11-11T14:39:38;15.80;47.80
24260;DHT22;12384;48.112;18.418;2022-11-11T14:42:43;15.40;48.20
24260;DHT22;12384;48.112;18.418;2022-11-11T14:46:02;15.10;48.80
24260;DHT22;12384;48.112;18.418;2022-11-11T14:48:58;14.80;49.20
24260;DHT22;12384;48.112;18.418;2022-11-11T14:51:51;14.50;49.30
24260;DHT22;12384;48.112;18.418;2022-11-11T14:54:58;14.20;49.60
24260;DHT22;12384;48.112;18.418;2022-11-11T14:57:48;13.90;50.00
24260;DHT22;12384;48.112;18.418;2022-11-11T15:00:43;13.70;50.30
24260;DHT22;12384;48.112;18.418;2022-11-11T15:03:36;13.40;50.60
24260;DHT22;12384;48.112;18.418;2022-11-11T15:06:29;13.20;51.00
24260;DHT22;12384;48.112;18.418;2022-11-11T15:09:34;13.00;51.40
24260;DHT22;12384;48.112;18.418;2022-11-11T15:12:32;12.80;51.70
24260;DHT22;12384;48.112;18.418;2022-11-11T15:15:25;12.60;52.00
24260;DHT22;12384;48.112;18.418;2022-11-11T15:18:25;12.40;52.30
24260;DHT22;12384;48.112;18.418;2022-11-11T15:21:21;12.30;52.60
24260;DHT22;12384;48.112;18.418;2022-11-11T15:24:27;12.10;52.90
24260;DHT22;12384;48.112;18.418;2022-11-11T15:27:25;12.00;53.30
24260;DHT22;12384;48.112;18.418;2022-11-11T15:30:19;11.80;53.60
24260;DHT22;12384;48.112;18.418;2022-11-11T15:33:11;11.70;53.90
24260;DHT22;12384;48.112;18.418;2022-11-11T15:36:05;11.50;54.00
24260;DHT22;12384;48.112;18.418;2022-11-11T15:38:57;11.40;54.60
24260;DHT22;12384;48.112;18.418;2022-11-11T15:41:48;11.30;54.10
24260;DHT22;12384;48.112;18.418;2022-11-11T15:44:36;11.10;54.30
24260;DHT22;12384;48.112;18.418;2022-11-11T15:47:23;10.90;54.30
24260;DHT22;12384;48.112;18.418;2022-11-11T15:50:17;10.80;54.60
24260;DHT22;12384;48.112;18.418;2022-11-11T15:53:04;10.60;54.90
24260;DHT22;12384;48.112;18.418;2022-11-11T15:55:54;10.50;55.20
24260;DHT22;12384;48.112;18.418;2022-11-11T15:58:42;10.40;55.60
24260;DHT22;12384;48.112;18.418;2022-11-11T16:01:30;10.30;56.00
24260;DHT22;12384;48.112;18.418;2022-11-11T16:04:18;10.20;56.20
24260;DHT22;12384;48.112;18.418;2022-11-11T16:07:30;10.20;56.50
24260;DHT22;12384;48.112;18.418;2022-11-11T16:10:26;10.10;56.70
24260;DHT22;12384;48.112;18.418;2022-11-11T16:13:17;10.00;56.80
24260;DHT22;12384;48.112;18.418;2022-11-11T16:16:10;10.00;57.10
24260;DHT22;12384;48.112;18.418;2022-11-11T16:19:02;9.90;58.00
24260;DHT22;12384;48.112;18.418;2022-11-11T16:21:53;9.90;58.30
24260;DHT22;12384;48.112;18.418;2022-11-11T16:24:43;9.90;58.40
24260;DHT22;12384;48.112;18.418;2022-11-11T16:27:32;9.80;58.50
24260;DHT22;12384;48.112;18.418;2022-11-11T16:30:30;9.70;58.70
24260;DHT22;12384;48.112;18.418;2022-11-11T16:33:32;9.70;58.90
24260;DHT22;12384;48.112;18.418;2022-11-11T16:36:19;9.70;59.10
24260;DHT22;12384;48.112;18.418;2022-11-11T16:39:13;9.70;59.50
24260;DHT22;12384;48.112;18.418;2022-11-11T16:42:01;9.70;59.70
24260;DHT22;12384;48.112;18.418;2022-11-11T16:44:53;9.70;59.80
24260;DHT22;12384;48.112;18.418;2022-11-11T16:47:50;9.70;59.90
24260;DHT22;12384;48.112;18.418;2022-11-11T16:50:52;9.60;60.00
24260;DHT22;12384;48.112;18.418;2022-11-11T16:53:44;9.60;60.20
24260;DHT22;12384;48.112;18.418;2022-11-11T16:56:33;9.60;60.50
24260;DHT22;12384;48.112;18.418;2022-11-11T16:59:24;9.50;60.70
24260;DHT22;12384;48.112;18.418;2022-11-11T17:02:15;9.50;61.10
24260;DHT22;12384;48.112;18.418;2022-11-11T17:05:03;9.50;61.60
24260;DHT22;12384;48.112;18.418;2022-11-11T17:07:51;9.50;62.00
24260;DHT22;12384;48.112;18.418;2022-11-11T17:10:38;9.50;62.30
24260;DHT22;12384;48.112;18.418;2022-11-11T17:13:26;9.50;62.80
24260;DHT22;12384;48.112;18.418;2022-11-11T17:16:13;9.50;63.30
24260;DHT22;12384;48.112;18.418;2022-11-11T17:19:00;9.50;63.80
24260;DHT22;12384;48.112;18.418;2022-11-11T17:21:48;9.50;64.20
24260;DHT22;12384;48.112;18.418;2022-11-11T17:24:36;9.50;64.70
24260;DHT22;12384;48.112;18.418;2022-11-11T17:27:24;9.50;64.90
24260;DHT22;12384;48.112;18.418;2022-11-11T17:30:14;9.50;65.10
24260;DHT22;12384;48.112;18.418;2022-11-11T17:33:01;9.50;65.20
24260;DHT22;12384;48.112;18.418;2022-11-11T17:35:52;9.40;65.30
24260;DHT22;12384;48.112;18.418;2022-11-11T17:38:39;9.40;65.40
24260;DHT22;12384;48.112;18.418;2022-11-11T17:41:27;9.30;65.30
24260;DHT22;12384;48.112;18.418;2022-11-11T17:44:14;9.20;65.30
24260;DHT22;12384;48.112;18.418;2022-11-11T17:47:01;9.10;65.40
24260;DHT22;12384;48.112;18.418;2022-11-11T17:49:48;9.10;65.80
24260;DHT22;12384;48.112;18.418;2022-11-11T17:52:41;9.00;66.20
24260;DHT22;12384;48.112;18.418;2022-11-11T17:55:30;9.00;66.80
24260;DHT22;12384;48.112;18.418;2022-11-11T17:58:18;8.90;68.00
24260;DHT22;12384;48.112;18.418;2022-11-11T18:01:06;8.90;67.80
24260;DHT22;12384;48.112;18.418;2022-11-11T18:03:56;8.80;68.90
24260;DHT22;12384;48.112;18.418;2022-11-11T18:06:43;8.80;70.50